sensor_id;sensor_type;location;lat;lon;timestamp;P1;durP1;ratioP1;P2;durP2;ratioP2
6344;SDS011;3205;42.666;23.264;2022-12-20T00:01:24;27.53;;;10.83;;
6344;SDS011;3205;42.666;23.264;2022-12-20T00:03:53;20.77;;;10.20;;
6344;SDS011;3205;42.666;23.264;2022-12-20T00:06:21;22.90;;;10.47;;
6344;SDS011;3205;42.666;23.264;2022-12-20T00:08:52;24.07;;;10.93;;
6344;SDS011;3205;42.666;23.264;2022-12-20T00:11:19;24.80;;;10.83;;
6344;SDS011;3205;42.666;23.264;2022-12-20T00:13:45;30.53;;;10.80;;
6344;SDS011;3205;42.666;23.264;2022-12-20T00:16:13;23.43;;;10.87;;
6344;SDS011;3205;42.666;23.264;2022-12-20T00:18:41;22.13;;;10.43;;
6344;SDS011;3205;42.666;23.264;2022-12-20T00:21:10;23.97;;;11.10;;
6344;SDS011;3205;42.666;23.264;2022-12-20T00:23:37;23.13;;;10.27;;
6344;SDS011;3205;42.666;23.264;2022-12-20T00:26:06;24.47;;;10.47;;
6344;SDS011;3205;42.666;23.264;2022-12-20T00:28:33;26.73;;;11.53;;
6344;SDS011;3205;42.666;23.264;2022-12-20T00:31:01;26.27;;;11.33;;
6344;SDS011;3205;42.666;23.264;2022-12-20T00:33:28;26.50;;;11.07;;
6344;SDS011;3205;42.666;23.264;2022-12-20T00:35:55;27.77;;;12.03;;
6344;SDS011;3205;42.666;23.264;2022-12-20T00:38:22;20.07;;;10.67;;
6344;SDS011;3205;42.666;23.264;2022-12-20T00:40:57;26.27;;;10.27;;
6344;SDS011;3205;42.666;23.264;2022-12-20T00:43:25;24.30;;;10.03;;
6344;SDS011;3205;42.666;23.264;2022-12-20T00:45:52;19.43;;;9.57;;
6344;SDS011;3205;42.666;23.264;2022-12-20T00:48:19;24.43;;;10.70;;
6344;SDS011;3205;42.666;23.264;2022-12-20T00:50:45;23.37;;;10.30;;
6344;SDS011;3205;42.666;23.264;2022-12-20T00:53:12;23.13;;;10.83;;
6344;SDS011;3205;42.666;23.264;2022-12-20T00:55:39;17.27;;;8.77;;
6344;SDS011;3205;42.666;23.264;2022-12-20T00:58:06;18.20;;;9.43;;
6344;SDS011;3205;42.666;23.264;2022-12-20T01:00:33;22.27;;;9.53;;
6344;SDS011;3205;42.666;23.264;2022-12-20T01:03:00;23.23;;;10.20;;
6344;SDS011;3205;42.666;23.264;2022-12-20T01:05:26;17.23;;;8.10;;
6344;SDS011;3205;42.666;23.264;2022-12-20T01:07:53;16.53;;;8.97;;
6344;SDS011;3205;42.666;23.264;2022-12-20T01:10:20;16.33;;;8.13;;
6344;SDS011;3205;42.666;23.264;2022-12-20T01:12:46;18.37;;;8.20;;
6344;SDS011;3205;42.666;23.264;2022-12-20T01:15:13;19.47;;;9.03;;
6344;SDS011;3205;42.666;23.264;2022-12-20T01:17:40;18.97;;;9.40;;
6344;SDS011;3205;42.666;23.264;2022-12-20T01:20:07;17.17;;;8.17;;
6344;SDS011;3205;42.666;23.264;2022-12-20T01:22:34;19.60;;;8.33;;
6344;SDS011;3205;42.666;23.264;2022-12-20T01:25:00;17.80;;;8.37;;
6344;SDS011;3205;42.666;23.264;2022-12-20T01:27:27;17.80;;;8.97;;
6344;SDS011;3205;42.666;23.264;2022-12-20T01:29:53;18.73;;;8.27;;
6344;SDS011;3205;42.666;23.264;2022-12-20T01:32:20;20.87;;;8.50;;
6344;SDS011;3205;42.666;23.264;2022-12-20T01:34:47;18.93;;;8.73;;
6344;SDS011;3205;42.666;23.264;2022-12-20T01:37:13;17.63;;;8.47;;
6344;SDS011;3205;42.666;23.264;2022-12-20T01:39:40;19.30;;;8.50;;
6344;SDS011;3205;42.666;23.264;2022-12-20T01:42:08;21.07;;;8.43;;
6344;SDS011;3205;42.666;23.264;2022-12-20T01:44:54;20.47;;;9.90;;
6344;SDS011;3205;42.666;23.264;2022-12-20T01:47:23;18.70;;;8.77;;
6344;SDS011;3205;42.666;23.264;2022-12-20T01:49:52;18.67;;;9.73;;
6344;SDS011;3205;42.666;23.264;2022-12-20T01:52:22;26.23;;;10.17;;
6344;SDS011;3205;42.666;23.264;2022-12-20T01:54:54;25.20;;;10.43;;
6344;SDS011;3205;42.666;23.264;2022-12-20T01:57:24;18.87;;;8.50;;
6344;SDS011;3205;42.666;23.264;2022-12-20T01:59:56;20.57;;;8.90;;
6344;SDS011;3205;42.666;23.264;2022-12-20T02:02:23;21.10;;;9.97;;
6344;SDS011;3205;42.666;23.264;2022-12-20T02:04:51;19.80;;;8.83;;
6344;SDS011;3205;42.666;23.264;2022-12-20T02:07:19;23.67;;;10.47;;
6344;SDS011;3205;42.666;23.264;2022-12-20T02:09:49;24.83;;;9.80;;
6344;SDS011;3205;42.666;23.264;2022-12-20T02:12:18;20.53;;;8.83;;
6344;SDS011;3205;42.666;23.264;2022-12-20T02:14:51;18.70;;;9.73;;
6344;SDS011;3205;42.666;23.264;2022-12-20T02:17:30;20.13;;;9.73;;
6344;SDS011;3205;42.666;23.264;2022-12-20T02:20:18;19.87;;;9.33;;
6344;SDS011;3205;42.666;23.264;2022-12-20T02:23:06;21.20;;;9.00;;
6344;SDS011;3205;42.666;23.264;2022-12-20T02:25:49;17.50;;;9.13;;
6344;SDS011;3205;42.666;23.264;2022-12-20T02:28:37;23.00;;;9.20;;
6344;SDS011;3205;42.666;23.264;2022-12-20T02:31:21;22.77;;;9.93;;
6344;SDS011;3205;42.666;23.264;2022-12-20T02:33:51;19.50;;;9.13;;
6344;SDS011;3205;42.666;23.264;2022-12-20T02:36:21;18.10;;;8.47;;
6344;SDS011;3205;42.666;23.264;2022-12-20T02:38:47;17.60;;;8.83;;
6344;SDS011;3205;42.666;23.264;2022-12-20T02:41:15;21.23;;;9.50;;
6344;SDS011;3205;42.666;23.264;2022-12-20T02:43:45;21.00;;;9.50;;
6344;SDS011;3205;42.666;23.264;2022-12-20T02:46:35;19.50;;;9.77;;
6344;SDS011;3205;42.666;23.264;2022-12-20T02:49:04;21.97;;;9.57;;
6344;SDS011;3205;42.666;23.264;2022-12-20T02:51:36;19.93;;;9.53;;
6344;SDS011;3205;42.666;23.264;2022-12-20T02:54:02;24.53;;;10.00;;
6344;SDS011;3205;42.666;23.264;2022-12-20T02:56:30;19.07;;;8.70;;
6344;SDS011;3205;42.666;23.264;2022-12-20T02:59:00;20.90;;;9.37;;
6344;SDS011;3205;42.666;23.264;2022-12-20T03:01:31;21.20;;;9.63;;
6344;SDS011;3205;42.666;23.264;2022-12-20T03:04:01;22.40;;;10.00;;
6344;SDS011;3205;42.666;23.264;2022-12-20T03:06:29;17.57;;;9.50;;
6344;SDS011;3205;42.666;23.264;2022-12-20T03:08:56;20.70;;;9.17;;
6344;SDS011;3205;42.666;23.264;2022-12-20T03:11:22;22.63;;;8.73;;
6344;SDS011;3205;42.666;23.264;2022-12-20T03:13:48;20.30;;;9.17;;
6344;SDS011;3205;42.666;23.264;2022-12-20T03:16:15;17.03;;;8.00;;
6344;SDS011;3205;42.666;23.264;2022-12-20T03:18:41;22.03;;;9.47;;
6344;SDS011;3205;42.666;23.264;2022-12-20T03:21:10;18.77;;;9.00;;
6344;SDS011;3205;42.666;23.264;2022-12-20T03:23:36;16.00;;;8.43;;
6344;SDS011;3205;42.666;23.264;2022-12-20T03:26:03;18.67;;;8.73;;
6344;SDS011;3205;42.666;23.264;2022-12-20T03:28:29;13.17;;;6.33;;
6344;SDS011;3205;42.666;23.264;2022-12-20T03:30:56;17.93;;;7.60;;
6344;SDS011;3205;42.666;23.264;2022-12-20T03:33:22;18.20;;;8.23;;
6344;SDS011;3205;42.666;23.264;2022-12-20T03:35:48;17.80;;;8.10;;
6344;SDS011;3205;42.666;23.264;2022-12-20T03:38:15;19.43;;;9.03;;
6344;SDS011;3205;42.666;23.264;2022-12-20T03:40:41;20.50;;;8.95;;
6344;SDS011;3205;42.666;23.264;2022-12-20T03:43:08;22.23;;;9.10;;
6344;SDS011;3205;42.666;23.264;2022-12-20T03:45:34;18.73;;;9.03;;
6344;SDS011;3205;42.666;23.264;2022-12-20T03:48:00;20.23;;;9.47;;
6344;SDS011;3205;42.666;23.264;2022-12-20T03:50:27;26.27;;;10.63;;
6344;SDS011;3205;42.666;23.264;2022-12-20T03:52:53;23.73;;;11.40;;
6344;SDS011;3205;42.666;23.264;2022-12-20T03:55:20;27.97;;;11.07;;
6344;SDS011;3205;42.666;23.264;2022-12-20T03:57:46;21.10;;;9.27;;
6344;SDS011;3205;42.666;23.264;2022-12-20T04:00:13;21.87;;;10.03;;
6344;SDS011;3205;42.666;23.264;2022-12-20T04:02:40;20.83;;;10.20;;
6344;SDS011;3205;42.666;23.264;2022-12-20T04:05:07;20.27;;;9.57;;
6344;SDS011;3205;42.666;23.264;2022-12-20T04:07:33;24.70;;;9.70;;
6344;SDS011;3205;42.666;23.264;2022-12-20T04:09:59;23.07;;;10.70;;
6344;SDS011;3205;42.666;23.264;2022-12-20T04:12:26;23.90;;;11.67;;
6344;SDS011;3205;42.666;23.264;2022-12-20T04:14:53;24.87;;;11.73;;
6344;SDS011;3205;42.666;23.264;2022-12-20T04:17:19;26.50;;;11.27;;
6344;SDS011;3205;42.666;23.264;2022-12-20T04:19:45;19.77;;;9.83;;
6344;SDS011;3205;42.666;23.264;2022-12-20T04:22:12;24.33;;;10.40;;
6344;SDS011;3205;42.666;23.264;2022-12-20T04:24:38;22.57;;;11.13;;
6344;SDS011;3205;42.666;23.264;2022-12-20T04:27:04;25.13;;;12.07;;
6344;SDS011;3205;42.666;23.264;2022-12-20T04:29:31;20.63;;;10.23;;
6344;SDS011;3205;42.666;23.264;2022-12-20T04:31:57;22.50;;;11.43;;
6344;SDS011;3205;42.666;23.264;2022-12-20T04:34:24;32.23;;;12.20;;
6344;SDS011;3205;42.666;23.264;2022-12-20T04:36:50;27.77;;;12.20;;
6344;SDS011;3205;42.666;23.264;2022-12-20T04:39:17;26.90;;;12.20;;
6344;SDS011;3205;42.666;23.264;2022-12-20T04:41:43;28.80;;;12.17;;
6344;SDS011;3205;42.666;23.264;2022-12-20T04:44:09;27.97;;;12.70;;
6344;SDS011;3205;42.666;23.264;2022-12-20T04:46:37;23.37;;;11.57;;
6344;SDS011;3205;42.666;23.264;2022-12-20T04:49:03;24.73;;;11.13;;
6344;SDS011;3205;42.666;23.264;2022-12-20T04:51:30;30.63;;;12.60;;
6344;SDS011;3205;42.666;23.264;2022-12-20T04:53:56;25.93;;;11.83;;
6344;SDS011;3205;42.666;23.264;2022-12-20T04:56:23;31.03;;;12.97;;
6344;SDS011;3205;42.666;23.264;2022-12-20T04:58:52;26.33;;;11.23;;
6344;SDS011;3205;42.666;23.264;2022-12-20T05:01:20;29.20;;;12.93;;
6344;SDS011;3205;42.666;23.264;2022-12-20T05:03:47;25.57;;;12.30;;
6344;SDS011;3205;42.666;23.264;2022-12-20T05:06:14;29.87;;;12.03;;
6344;SDS011;3205;42.666;23.264;2022-12-20T05:08:42;28.43;;;12.40;;
6344;SDS011;3205;42.666;23.264;2022-12-20T05:11:09;26.23;;;11.90;;
6344;SDS011;3205;42.666;23.264;2022-12-20T05:13:36;26.80;;;11.83;;
6344;SDS011;3205;42.666;23.264;2022-12-20T05:16:02;28.03;;;12.40;;
6344;SDS011;3205;42.666;23.264;2022-12-20T05:18:29;24.63;;;12.27;;
6344;SDS011;3205;42.666;23.264;2022-12-20T05:20:57;26.87;;;12.60;;
6344;SDS011;3205;42.666;23.264;2022-12-20T05:23:43;24.93;;;12.40;;
6344;SDS011;3205;42.666;23.264;2022-12-20T05:26:28;24.67;;;12.70;;
6344;SDS011;3205;42.666;23.264;2022-12-20T05:28:57;28.50;;;13.60;;
6344;SDS011;3205;42.666;23.264;2022-12-20T05:31:25;30.17;;;13.10;;
6344;SDS011;3205;42.666;23.264;2022-12-20T05:33:51;32.07;;;13.37;;
6344;SDS011;3205;42.666;23.264;2022-12-20T05:36:19;29.90;;;13.33;;
6344;SDS011;3205;42.666;23.264;2022-12-20T05:38:45;39.07;;;15.23;;
6344;SDS011;3205;42.666;23.264;2022-12-20T05:41:12;36.33;;;15.60;;
6344;SDS011;3205;42.666;23.264;2022-12-20T05:43:38;37.67;;;17.40;;
6344;SDS011;3205;42.666;23.264;2022-12-20T05:46:05;50.03;;;18.50;;
6344;SDS011;3205;42.666;23.264;2022-12-20T05:48:31;45.47;;;18.30;;
6344;SDS011;3205;42.666;23.264;2022-12-20T05:50:58;39.20;;;16.10;;
6344;SDS011;3205;42.666;23.264;2022-12-20T05:53:25;36.10;;;15.83;;
6344;SDS011;3205;42.666;23.264;2022-12-20T05:55:52;44.47;;;17.70;;
6344;SDS011;3205;42.666;23.264;2022-12-20T05:58:18;45.10;;;18.77;;
6344;SDS011;3205;42.666;23.264;2022-12-20T06:00:45;39.43;;;16.80;;
6344;SDS011;3205;42.666;23.264;2022-12-20T06:03:12;42.73;;;17.57;;
6344;SDS011;3205;42.666;23.264;2022-12-20T06:05:40;52.37;;;20.07;;
6344;SDS011;3205;42.666;23.264;2022-12-20T06:08:07;48.80;;;22.17;;
6344;SDS011;3205;42.666;23.264;2022-12-20T06:10:35;47.73;;;18.63;;
6344;SDS011;3205;42.666;23.264;2022-12-20T06:13:02;48.20;;;18.63;;
6344;SDS011;3205;42.666;23.264;2022-12-20T06:15:29;41.30;;;19.07;;
6344;SDS011;3205;42.666;23.264;2022-12-20T06:17:55;42.20;;;18.10;;
6344;SDS011;3205;42.666;23.264;2022-12-20T06:20:22;51.13;;;21.27;;
6344;SDS011;3205;42.666;23.264;2022-12-20T06:22:49;53.47;;;21.67;;
6344;SDS011;3205;42.666;23.264;2022-12-20T06:25:16;55.63;;;22.07;;
6344;SDS011;3205;42.666;23.264;2022-12-20T06:27:44;56.37;;;23.90;;
6344;SDS011;3205;42.666;23.264;2022-12-20T06:30:10;56.60;;;21.30;;
6344;SDS011;3205;42.666;23.264;2022-12-20T06:32:37;53.10;;;21.33;;
6344;SDS011;3205;42.666;23.264;2022-12-20T06:35:04;49.33;;;20.63;;
6344;SDS011;3205;42.666;23.264;2022-12-20T06:37:30;50.87;;;20.17;;
6344;SDS011;3205;42.666;23.264;2022-12-20T06:39:57;51.60;;;20.90;;
6344;SDS011;3205;42.666;23.264;2022-12-20T06:42:24;53.63;;;20.70;;
6344;SDS011;3205;42.666;23.264;2022-12-20T06:44:51;59.40;;;22.93;;
6344;SDS011;3205;42.666;23.264;2022-12-20T06:47:17;54.77;;;21.03;;
6344;SDS011;3205;42.666;23.264;2022-12-20T06:49:43;48.50;;;20.70;;
6344;SDS011;3205;42.666;23.264;2022-12-20T06:52:09;54.17;;;18.70;;
6344;SDS011;3205;42.666;23.264;2022-12-20T06:54:36;46.33;;;19.40;;
6344;SDS011;3205;42.666;23.264;2022-12-20T06:57:02;38.23;;;18.77;;
6344;SDS011;3205;42.666;23.264;2022-12-20T06:59:28;48.77;;;20.10;;
6344;SDS011;3205;42.666;23.264;2022-12-20T07:01:55;59.20;;;20.83;;
6344;SDS011;3205;42.666;23.264;2022-12-20T07:04:21;40.80;;;19.57;;
6344;SDS011;3205;42.666;23.264;2022-12-20T07:06:48;43.90;;;20.27;;
6344;SDS011;3205;42.666;23.264;2022-12-20T07:09:15;42.67;;;22.53;;
6344;SDS011;3205;42.666;23.264;2022-12-20T07:11:41;45.37;;;19.33;;
6344;SDS011;3205;42.666;23.264;2022-12-20T07:14:08;28.30;;;12.97;;
6344;SDS011;3205;42.666;23.264;2022-12-20T07:16:35;26.80;;;11.97;;
6344;SDS011;3205;42.666;23.264;2022-12-20T07:19:02;30.03;;;11.17;;
6344;SDS011;3205;42.666;23.264;2022-12-20T07:21:29;17.37;;;9.20;;
6344;SDS011;3205;42.666;23.264;2022-12-20T07:23:55;21.10;;;9.40;;
6344;SDS011;3205;42.666;23.264;2022-12-20T07:26:21;17.27;;;9.60;;
6344;SDS011;3205;42.666;23.264;2022-12-20T07:28:48;18.13;;;9.57;;
6344;SDS011;3205;42.666;23.264;2022-12-20T07:31:14;21.13;;;10.07;;
6344;SDS011;3205;42.666;23.264;2022-12-20T07:33:40;24.47;;;10.43;;
6344;SDS011;3205;42.666;23.264;2022-12-20T07:36:09;27.50;;;11.17;;
6344;SDS011;3205;42.666;23.264;2022-12-20T07:38:36;18.90;;;7.90;;
6344;SDS011;3205;42.666;23.264;2022-12-20T07:41:05;29.73;;;9.60;;
6344;SDS011;3205;42.666;23.264;2022-12-20T07:43:32;17.67;;;8.73;;
6344;SDS011;3205;42.666;23.264;2022-12-20T07:45:59;17.60;;;9.60;;
6344;SDS011;3205;42.666;23.264;2022-12-20T07:48:25;20.50;;;8.97;;
6344;SDS011;3205;42.666;23.264;2022-12-20T07:50:52;16.57;;;8.40;;
6344;SDS011;3205;42.666;23.264;2022-12-20T07:53:23;16.77;;;8.47;;
6344;SDS011;3205;42.666;23.264;2022-12-20T07:55:51;18.30;;;8.57;;
6344;SDS011;3205;42.666;23.264;2022-12-20T07:58:18;14.70;;;8.30;;
6344;SDS011;3205;42.666;23.264;2022-12-20T08:00:45;15.97;;;8.60;;
6344;SDS011;3205;42.666;23.264;2022-12-20T08:03:12;19.50;;;8.77;;
6344;SDS011;3205;42.666;23.264;2022-12-20T08:05:45;16.87;;;8.73;;
6344;SDS011;3205;42.666;23.264;2022-12-20T08:08:16;13.63;;;7.97;;
6344;SDS011;3205;42.666;23.264;2022-12-20T08:10:44;19.23;;;8.83;;
6344;SDS011;3205;42.666;23.264;2022-12-20T08:13:11;17.13;;;10.03;;
6344;SDS011;3205;42.666;23.264;2022-12-20T08:15:39;20.90;;;10.07;;
6344;SDS011;3205;42.666;23.264;2022-12-20T08:18:05;23.50;;;10.33;;
6344;SDS011;3205;42.666;23.264;2022-12-20T08:20:31;17.47;;;8.67;;
6344;SDS011;3205;42.666;23.264;2022-12-20T08:22:58;19.30;;;8.47;;
6344;SDS011;3205;42.666;23.264;2022-12-20T08:25:24;17.17;;;9.03;;
6344;SDS011;3205;42.666;23.264;2022-12-20T08:27:51;14.63;;;9.10;;
6344;SDS011;3205;42.666;23.264;2022-12-20T08:30:17;17.37;;;8.67;;
6344;SDS011;3205;42.666;23.264;2022-12-20T08:32:43;19.10;;;10.23;;
6344;SDS011;3205;42.666;23.264;2022-12-20T08:35:10;19.47;;;9.00;;
6344;SDS011;3205;42.666;23.264;2022-12-20T08:37:37;16.07;;;8.37;;
6344;SDS011;3205;42.666;23.264;2022-12-20T08:40:03;16.97;;;9.20;;
6344;SDS011;3205;42.666;23.264;2022-12-20T08:42:32;13.63;;;8.17;;
6344;SDS011;3205;42.666;23.264;2022-12-20T08:44:59;15.60;;;9.03;;
6344;SDS011;3205;42.666;23.264;2022-12-20T08:47:25;17.07;;;8.83;;
6344;SDS011;3205;42.666;23.264;2022-12-20T08:49:53;19.93;;;9.03;;
6344;SDS011;3205;42.666;23.264;2022-12-20T08:52:19;18.23;;;9.80;;
6344;SDS011;3205;42.666;23.264;2022-12-20T08:54:46;24.37;;;10.83;;
6344;SDS011;3205;42.666;23.264;2022-12-20T08:57:12;21.07;;;9.90;;
6344;SDS011;3205;42.666;23.264;2022-12-20T08:59:38;17.90;;;9.30;;
6344;SDS011;3205;42.666;23.264;2022-12-20T09:02:05;17.87;;;9.50;;
6344;SDS011;3205;42.666;23.264;2022-12-20T09:04:31;16.13;;;9.47;;
6344;SDS011;3205;42.666;23.264;2022-12-20T09:06:58;18.23;;;9.20;;
6344;SDS011;3205;42.666;23.264;2022-12-20T09:09:24;21.90;;;9.57;;
6344;SDS011;3205;42.666;23.264;2022-12-20T09:11:50;23.50;;;8.97;;
6344;SDS011;3205;42.666;23.264;2022-12-20T09:14:17;18.60;;;9.83;;
6344;SDS011;3205;42.666;23.264;2022-12-20T09:16:43;17.07;;;9.07;;
6344;SDS011;3205;42.666;23.264;2022-12-20T09:19:10;25.33;;;10.63;;
6344;SDS011;3205;42.666;23.264;2022-12-20T09:21:38;17.37;;;9.83;;
6344;SDS011;3205;42.666;23.264;2022-12-20T09:24:05;16.43;;;9.20;;
6344;SDS011;3205;42.666;23.264;2022-12-20T09:26:33;18.40;;;10.27;;
6344;SDS011;3205;42.666;23.264;2022-12-20T09:28:59;21.97;;;9.57;;
6344;SDS011;3205;42.666;23.264;2022-12-20T09:31:26;21.10;;;9.13;;
6344;SDS011;3205;42.666;23.264;2022-12-20T09:33:53;21.20;;;10.07;;
6344;SDS011;3205;42.666;23.264;2022-12-20T09:36:21;19.67;;;10.33;;
6344;SDS011;3205;42.666;23.264;2022-12-20T09:38:48;21.47;;;10.77;;
6344;SDS011;3205;42.666;23.264;2022-12-20T09:41:18;18.60;;;10.00;;
6344;SDS011;3205;42.666;23.264;2022-12-20T09:43:49;19.97;;;9.97;;
6344;SDS011;3205;42.666;23.264;2022-12-20T09:46:17;37.27;;;10.47;;
6344;SDS011;3205;42.666;23.264;2022-12-20T09:48:43;21.43;;;10.23;;
6344;SDS011;3205;42.666;23.264;2022-12-20T09:51:13;23.57;;;9.63;;
6344;SDS011;3205;42.666;23.264;2022-12-20T09:53:54;18.17;;;10.00;;
6344;SDS011;3205;42.666;23.264;2022-12-20T09:56:29;23.47;;;11.27;;
6344;SDS011;3205;42.666;23.264;2022-12-20T09:59:00;21.53;;;10.07;;
6344;SDS011;3205;42.666;23.264;2022-12-20T10:01:30;20.33;;;9.57;;
6344;SDS011;3205;42.666;23.264;2022-12-20T10:04:00;21.47;;;10.03;;
6344;SDS011;3205;42.666;23.264;2022-12-20T10:06:32;14.50;;;8.57;;
6344;SDS011;3205;42.666;23.264;2022-12-20T10:09:12;17.37;;;8.47;;
6344;SDS011;3205;42.666;23.264;2022-12-20T10:11:57;19.00;;;9.07;;
6344;SDS011;3205;42.666;23.264;2022-12-20T10:14:49;20.57;;;8.70;;
6344;SDS011;3205;42.666;23.264;2022-12-20T10:17:26;19.23;;;9.53;;
6344;SDS011;3205;42.666;23.264;2022-12-20T10:20:06;20.60;;;10.07;;
6344;SDS011;3205;42.666;23.264;2022-12-20T10:22:48;18.23;;;9.00;;
6344;SDS011;3205;42.666;23.264;2022-12-20T10:25:20;16.07;;;8.17;;
6344;SDS011;3205;42.666;23.264;2022-12-20T10:27:48;17.87;;;8.87;;
6344;SDS011;3205;42.666;23.264;2022-12-20T10:30:17;18.77;;;9.03;;
6344;SDS011;3205;42.666;23.264;2022-12-20T10:32:46;18.70;;;8.83;;
6344;SDS011;3205;42.666;23.264;2022-12-20T10:35:17;18.80;;;9.33;;
6344;SDS011;3205;42.666;23.264;2022-12-20T10:37:56;20.60;;;10.23;;
6344;SDS011;3205;42.666;23.264;2022-12-20T10:40:27;23.17;;;9.70;;
6344;SDS011;3205;42.666;23.264;2022-12-20T10:42:55;17.27;;;9.07;;
6344;SDS011;3205;42.666;23.264;2022-12-20T10:50:54;23.33;;;9.60;;
6344;SDS011;3205;42.666;23.264;2022-12-20T10:53:22;20.03;;;9.60;;
6344;SDS011;3205;42.666;23.264;2022-12-20T10:55:49;17.70;;;9.17;;
6344;SDS011;3205;42.666;23.264;2022-12-20T10:58:18;19.60;;;9.60;;
6344;SDS011;3205;42.666;23.264;2022-12-20T11:01:02;18.27;;;9.17;;
6344;SDS011;3205;42.666;23.264;2022-12-20T11:03:30;19.37;;;8.47;;
6344;SDS011;3205;42.666;23.264;2022-12-20T11:05:57;21.20;;;9.33;;
6344;SDS011;3205;42.666;23.264;2022-12-20T11:08:27;23.20;;;10.03;;
6344;SDS011;3205;42.666;23.264;2022-12-20T11:13:40;18.07;;;8.07;;
6344;SDS011;3205;42.666;23.264;2022-12-20T11:16:21;16.70;;;9.33;;
6344;SDS011;3205;42.666;23.264;2022-12-20T11:18:50;17.87;;;9.47;;
6344;SDS011;3205;42.666;23.264;2022-12-20T11:21:23;13.57;;;7.87;;
6344;SDS011;3205;42.666;23.264;2022-12-20T11:23:57;15.00;;;8.23;;
6344;SDS011;3205;42.666;23.264;2022-12-20T11:26:35;24.70;;;8.67;;
6344;SDS011;3205;42.666;23.264;2022-12-20T11:29:15;16.07;;;9.13;;
6344;SDS011;3205;42.666;23.264;2022-12-20T11:31:54;20.03;;;8.77;;
6344;SDS011;3205;42.666;23.264;2022-12-20T11:34:29;19.57;;;8.90;;
6344;SDS011;3205;42.666;23.264;2022-12-20T11:37:15;16.97;;;8.93;;
6344;SDS011;3205;42.666;23.264;2022-12-20T11:39:48;20.47;;;9.03;;
6344;SDS011;3205;42.666;23.264;2022-12-20T11:42:25;22.57;;;10.10;;
6344;SDS011;3205;42.666;23.264;2022-12-20T11:45:03;19.40;;;10.13;;
6344;SDS011;3205;42.666;23.264;2022-12-20T11:47:45;34.23;;;10.53;;
6344;SDS011;3205;42.666;23.264;2022-12-20T11:50:33;18.17;;;9.63;;
6344;SDS011;3205;42.666;23.264;2022-12-20T11:53:07;20.40;;;10.30;;
6344;SDS011;3205;42.666;23.264;2022-12-20T11:55:43;25.83;;;9.20;;
6344;SDS011;3205;42.666;23.264;2022-12-20T11:58:15;20.63;;;10.33;;
6344;SDS011;3205;42.666;23.264;2022-12-20T12:00:46;22.17;;;10.93;;
6344;SDS011;3205;42.666;23.264;2022-12-20T12:03:20;20.53;;;9.20;;
6344;SDS011;3205;42.666;23.264;2022-12-20T12:05:54;22.90;;;8.80;;
6344;SDS011;3205;42.666;23.264;2022-12-20T12:08:26;22.90;;;10.53;;
6344;SDS011;3205;42.666;23.264;2022-12-20T12:10:58;35.07;;;10.13;;
6344;SDS011;3205;42.666;23.264;2022-12-20T12:13:29;20.80;;;10.00;;
6344;SDS011;3205;42.666;23.264;2022-12-20T12:16:00;28.07;;;10.77;;
6344;SDS011;3205;42.666;23.264;2022-12-20T12:18:31;22.23;;;9.57;;
6344;SDS011;3205;42.666;23.264;2022-12-20T12:21:00;45.90;;;17.03;;
6344;SDS011;3205;42.666;23.264;2022-12-20T12:23:35;31.60;;;11.93;;
6344;SDS011;3205;42.666;23.264;2022-12-20T12:26:11;20.97;;;9.47;;
6344;SDS011;3205;42.666;23.264;2022-12-20T12:28:40;16.83;;;9.03;;
6344;SDS011;3205;42.666;23.264;2022-12-20T12:31:06;20.17;;;9.63;;
6344;SDS011;3205;42.666;23.264;2022-12-20T12:33:39;20.23;;;9.53;;
6344;SDS011;3205;42.666;23.264;2022-12-20T12:36:15;28.90;;;9.97;;
6344;SDS011;3205;42.666;23.264;2022-12-20T12:44:50;21.10;;;10.27;;
6344;SDS011;3205;42.666;23.264;2022-12-20T12:47:20;78.57;;;13.43;;
6344;SDS011;3205;42.666;23.264;2022-12-20T12:49:53;23.93;;;9.10;;
6344;SDS011;3205;42.666;23.264;2022-12-20T13:00:58;21.80;;;9.10;;
6344;SDS011;3205;42.666;23.264;2022-12-20T13:03:45;19.90;;;10.67;;
6344;SDS011;3205;42.666;23.264;2022-12-20T13:06:42;19.10;;;9.30;;
6344;SDS011;3205;42.666;23.264;2022-12-20T13:09:39;16.97;;;8.77;;
6344;SDS011;3205;42.666;23.264;2022-12-20T13:27:15;22.70;;;9.73;;
6344;SDS011;3205;42.666;23.264;2022-12-20T13:29:51;23.27;;;8.97;;
6344;SDS011;3205;42.666;23.264;2022-12-20T13:35:28;24.67;;;8.67;;
6344;SDS011;3205;42.666;23.264;2022-12-20T13:37:57;21.50;;;10.20;;
6344;SDS011;3205;42.666;23.264;2022-12-20T13:40:30;22.90;;;10.70;;
6344;SDS011;3205;42.666;23.264;2022-12-20T13:43:01;23.13;;;10.43;;
6344;SDS011;3205;42.666;23.264;2022-12-20T13:45:31;26.70;;;10.33;;
6344;SDS011;3205;42.666;23.264;2022-12-20T13:48:00;21.17;;;9.60;;
6344;SDS011;3205;42.666;23.264;2022-12-20T13:50:30;21.60;;;9.60;;
6344;SDS011;3205;42.666;23.264;2022-12-20T13:52:59;19.60;;;9.20;;
6344;SDS011;3205;42.666;23.264;2022-12-20T13:55:31;23.30;;;10.27;;
6344;SDS011;3205;42.666;23.264;2022-12-20T13:58:02;28.43;;;11.07;;
6344;SDS011;3205;42.666;23.264;2022-12-20T14:00:37;24.73;;;11.70;;
6344;SDS011;3205;42.666;23.264;2022-12-20T14:03:04;28.00;;;11.73;;
6344;SDS011;3205;42.666;23.264;2022-12-20T14:05:40;32.63;;;12.20;;
6344;SDS011;3205;42.666;23.264;2022-12-20T14:08:07;34.17;;;13.77;;
6344;SDS011;3205;42.666;23.264;2022-12-20T14:10:38;27.97;;;13.33;;
6344;SDS011;3205;42.666;23.264;2022-12-20T14:13:13;28.13;;;13.17;;
6344;SDS011;3205;42.666;23.264;2022-12-20T14:15:45;33.43;;;13.93;;
6344;SDS011;3205;42.666;23.264;2022-12-20T14:18:15;26.70;;;14.13;;
6344;SDS011;3205;42.666;23.264;2022-12-20T14:20:45;33.53;;;14.90;;
6344;SDS011;3205;42.666;23.264;2022-12-20T14:23:15;32.43;;;13.63;;
6344;SDS011;3205;42.666;23.264;2022-12-20T14:25:45;37.23;;;16.43;;
6344;SDS011;3205;42.666;23.264;2022-12-20T14:31:06;39.83;;;17.40;;
6344;SDS011;3205;42.666;23.264;2022-12-20T14:33:47;35.27;;;14.77;;
6344;SDS011;3205;42.666;23.264;2022-12-20T14:36:18;35.47;;;15.23;;
6344;SDS011;3205;42.666;23.264;2022-12-20T14:38:46;39.97;;;13.03;;
6344;SDS011;3205;42.666;23.264;2022-12-20T14:41:30;34.43;;;16.77;;
6344;SDS011;3205;42.666;23.264;2022-12-20T14:44:01;44.77;;;18.43;;
6344;SDS011;3205;42.666;23.264;2022-12-20T14:46:29;39.83;;;17.93;;
6344;SDS011;3205;42.666;23.264;2022-12-20T14:49:07;39.60;;;15.53;;
6344;SDS011;3205;42.666;23.264;2022-12-20T14:51:42;41.30;;;15.60;;
6344;SDS011;3205;42.666;23.264;2022-12-20T14:54:11;42.47;;;18.17;;
6344;SDS011;3205;42.666;23.264;2022-12-20T14:56:43;51.87;;;18.63;;
6344;SDS011;3205;42.666;23.264;2022-12-20T14:59:12;83.77;;;20.97;;
6344;SDS011;3205;42.666;23.264;2022-12-20T15:01:40;65.47;;;20.93;;
6344;SDS011;3205;42.666;23.264;2022-12-20T15:04:19;64.33;;;20.43;;
6344;SDS011;3205;42.666;23.264;2022-12-20T15:06:48;75.00;;;22.83;;
6344;SDS011;3205;42.666;23.264;2022-12-20T15:09:18;66.47;;;21.73;;
6344;SDS011;3205;42.666;23.264;2022-12-20T15:11:45;49.67;;;19.73;;
6344;SDS011;3205;42.666;23.264;2022-12-20T15:14:18;48.17;;;20.77;;
6344;SDS011;3205;42.666;23.264;2022-12-20T15:16:51;71.63;;;25.97;;
6344;SDS011;3205;42.666;23.264;2022-12-20T15:19:18;85.80;;;24.73;;
6344;SDS011;3205;42.666;23.264;2022-12-20T15:21:45;70.60;;;25.10;;
6344;SDS011;3205;42.666;23.264;2022-12-20T15:24:12;81.17;;;28.47;;
6344;SDS011;3205;42.666;23.264;2022-12-20T15:26:40;69.17;;;26.87;;
6344;SDS011;3205;42.666;23.264;2022-12-20T15:29:09;68.53;;;26.50;;
6344;SDS011;3205;42.666;23.264;2022-12-20T15:31:39;68.07;;;25.23;;
6344;SDS011;3205;42.666;23.264;2022-12-20T15:34:09;65.77;;;26.13;;
6344;SDS011;3205;42.666;23.264;2022-12-20T15:36:40;66.67;;;23.83;;
6344;SDS011;3205;42.666;23.264;2022-12-20T15:39:08;74.53;;;25.43;;